sensor_id;sensor_type;location;lat;lon;timestamp;P1;durP1;ratioP1;P2;durP2;ratioP2
72926;SDS011;61071;51.618;19.388;2022-08-19T00:01:45;17.40;;;11.65;;
72926;SDS011;61071;51.618;19.388;2022-08-19T00:04:14;20.65;;;13.52;;
72926;SDS011;61071;51.618;19.388;2022-08-19T00:06:42;20.13;;;12.40;;
72926;SDS011;61071;51.618;19.388;2022-08-19T00:09:11;14.73;;;10.60;;
72926;SDS011;61071;51.618;19.388;2022-08-19T00:11:40;15.52;;;10.50;;
72926;SDS011;61071;51.618;19.388;2022-08-19T00:14:09;14.40;;;10.02;;
72926;SDS011;61071;51.618;19.388;2022-08-19T00:16:37;16.83;;;10.20;;
72926;SDS011;61071;51.618;19.388;2022-08-19T00:19:05;13.07;;;9.75;;
72926;SDS011;61071;51.618;19.388;2022-08-19T00:21:31;15.30;;;9.50;;
72926;SDS011;61071;51.618;19.388;2022-08-19T00:23:57;13.02;;;9.38;;
72926;SDS011;61071;51.618;19.388;2022-08-19T00:26:25;14.48;;;9.88;;
72926;SDS011;61071;51.618;19.388;2022-08-19T00:28:53;25.23;;;9.93;;
72926;SDS011;61071;51.618;19.388;2022-08-19T00:31:19;15.05;;;9.90;;
72926;SDS011;61071;51.618;19.388;2022-08-19T00:33:45;12.00;;;9.45;;
72926;SDS011;61071;51.618;19.388;2022-08-19T00:36:11;15.43;;;9.75;;
72926;SDS011;61071;51.618;19.388;2022-08-19T00:38:38;14.88;;;10.13;;
72926;SDS011;61071;51.618;19.388;2022-08-19T00:41:09;21.83;;;10.48;;
72926;SDS011;61071;51.618;19.388;2022-08-19T00:43:39;12.18;;;10.07;;
72926;SDS011;61071;51.618;19.388;2022-08-19T00:46:06;13.65;;;9.23;;
72926;SDS011;61071;51.618;19.388;2022-08-19T00:48:33;13.18;;;9.18;;
72926;SDS011;61071;51.618;19.388;2022-08-19T00:51:00;16.02;;;9.82;;
72926;SDS011;61071;51.618;19.388;2022-08-19T00:53:27;14.60;;;9.80;;
72926;SDS011;61071;51.618;19.388;2022-08-19T00:55:59;12.38;;;8.77;;
72926;SDS011;61071;51.618;19.388;2022-08-19T00:58:29;12.90;;;9.45;;
72926;SDS011;61071;51.618;19.388;2022-08-19T01:00:58;10.90;;;8.88;;
72926;SDS011;61071;51.618;19.388;2022-08-19T01:03:25;16.13;;;10.00;;
72926;SDS011;61071;51.618;19.388;2022-08-19T01:05:52;14.30;;;9.48;;
72926;SDS011;61071;51.618;19.388;2022-08-19T01:08:19;13.50;;;9.45;;
72926;SDS011;61071;51.618;19.388;2022-08-19T01:10:51;11.95;;;8.90;;
72926;SDS011;61071;51.618;19.388;2022-08-19T01:13:25;14.10;;;8.68;;
72926;SDS011;61071;51.618;19.388;2022-08-19T01:15:56;12.90;;;8.75;;
72926;SDS011;61071;51.618;19.388;2022-08-19T01:18:27;12.93;;;8.30;;
72926;SDS011;61071;51.618;19.388;2022-08-19T01:20:56;14.65;;;9.20;;
72926;SDS011;61071;51.618;19.388;2022-08-19T01:23:31;13.85;;;9.18;;
72926;SDS011;61071;51.618;19.388;2022-08-19T01:26:11;12.40;;;8.95;;
72926;SDS011;61071;51.618;19.388;2022-08-19T01:28:41;22.05;;;9.88;;
72926;SDS011;61071;51.618;19.388;2022-08-19T01:31:15;12.90;;;9.15;;
72926;SDS011;61071;51.618;19.388;2022-08-19T01:33:46;16.33;;;9.27;;
72926;SDS011;61071;51.618;19.388;2022-08-19T01:36:13;15.38;;;9.65;;
72926;SDS011;61071;51.618;19.388;2022-08-19T01:38:48;13.07;;;8.90;;
72926;SDS011;61071;51.618;19.388;2022-08-19T01:41:14;22.25;;;9.90;;
72926;SDS011;61071;51.618;19.388;2022-08-19T01:43:42;13.77;;;9.35;;
72926;SDS011;61071;51.618;19.388;2022-08-19T01:46:09;13.98;;;10.20;;
72926;SDS011;61071;51.618;19.388;2022-08-19T01:48:36;20.27;;;9.10;;
72926;SDS011;61071;51.618;19.388;2022-08-19T01:51:06;12.77;;;9.43;;
72926;SDS011;61071;51.618;19.388;2022-08-19T01:53:33;18.67;;;9.65;;
72926;SDS011;61071;51.618;19.388;2022-08-19T01:55:59;15.05;;;8.65;;
72926;SDS011;61071;51.618;19.388;2022-08-19T01:59:11;14.10;;;9.07;;
72926;SDS011;61071;51.618;19.388;2022-08-19T02:01:20;12.57;;;8.85;;
72926;SDS011;61071;51.618;19.388;2022-08-19T02:03:46;14.18;;;9.02;;
72926;SDS011;61071;51.618;19.388;2022-08-19T02:06:11;14.02;;;8.77;;
72926;SDS011;61071;51.618;19.388;2022-08-19T02:08:38;13.52;;;9.23;;
72926;SDS011;61071;51.618;19.388;2022-08-19T02:11:05;17.42;;;9.30;;
72926;SDS011;61071;51.618;19.388;2022-08-19T02:13:32;11.75;;;8.63;;
72926;SDS011;61071;51.618;19.388;2022-08-19T02:15:59;13.63;;;9.35;;
72926;SDS011;61071;51.618;19.388;2022-08-19T02:18:25;13.57;;;9.45;;
72926;SDS011;61071;51.618;19.388;2022-08-19T02:20:51;19.08;;;9.27;;
72926;SDS011;61071;51.618;19.388;2022-08-19T02:23:17;16.98;;;9.15;;
72926;SDS011;61071;51.618;19.388;2022-08-19T02:25:44;14.35;;;8.63;;
72926;SDS011;61071;51.618;19.388;2022-08-19T02:28:11;14.15;;;9.68;;
72926;SDS011;61071;51.618;19.388;2022-08-19T02:30:38;14.70;;;10.32;;
72926;SDS011;61071;51.618;19.388;2022-08-19T02:33:05;15.50;;;10.40;;
72926;SDS011;61071;51.618;19.388;2022-08-19T02:35:31;13.02;;;10.07;;
72926;SDS011;61071;51.618;19.388;2022-08-19T02:37:56;17.67;;;9.90;;
72926;SDS011;61071;51.618;19.388;2022-08-19T02:40:47;20.23;;;9.93;;
72926;SDS011;61071;51.618;19.388;2022-08-19T02:43:17;14.45;;;9.27;;
72926;SDS011;61071;51.618;19.388;2022-08-19T02:45:45;19.77;;;10.18;;
72926;SDS011;61071;51.618;19.388;2022-08-19T02:48:13;15.95;;;10.68;;
72926;SDS011;61071;51.618;19.388;2022-08-19T02:50:42;15.32;;;10.15;;
72926;SDS011;61071;51.618;19.388;2022-08-19T02:53:08;14.93;;;9.90;;
72926;SDS011;61071;51.618;19.388;2022-08-19T02:55:36;14.32;;;9.60;;
72926;SDS011;61071;51.618;19.388;2022-08-19T02:58:09;13.55;;;9.88;;
72926;SDS011;61071;51.618;19.388;2022-08-19T03:00:35;13.30;;;9.82;;
72926;SDS011;61071;51.618;19.388;2022-08-19T03:03:01;13.63;;;9.88;;
72926;SDS011;61071;51.618;19.388;2022-08-19T03:05:27;16.05;;;10.18;;
72926;SDS011;61071;51.618;19.388;2022-08-19T03:07:53;15.48;;;10.70;;
72926;SDS011;61071;51.618;19.388;2022-08-19T03:10:18;14.73;;;10.90;;
72926;SDS011;61071;51.618;19.388;2022-08-19T03:12:45;14.85;;;10.63;;
72926;SDS011;61071;51.618;19.388;2022-08-19T03:15:11;14.48;;;10.07;;
72926;SDS011;61071;51.618;19.388;2022-08-19T03:17:37;15.52;;;10.10;;
72926;SDS011;61071;51.618;19.388;2022-08-19T03:20:03;13.93;;;10.30;;
72926;SDS011;61071;51.618;19.388;2022-08-19T03:22:30;13.00;;;9.88;;
72926;SDS011;61071;51.618;19.388;2022-08-19T03:24:56;11.82;;;10.00;;
72926;SDS011;61071;51.618;19.388;2022-08-19T03:27:21;20.33;;;10.65;;
72926;SDS011;61071;51.618;19.388;2022-08-19T03:29:47;15.57;;;10.30;;
72926;SDS011;61071;51.618;19.388;2022-08-19T03:32:13;15.98;;;9.98;;
72926;SDS011;61071;51.618;19.388;2022-08-19T03:34:38;17.80;;;9.98;;
72926;SDS011;61071;51.618;19.388;2022-08-19T03:37:06;20.33;;;10.25;;
72926;SDS011;61071;51.618;19.388;2022-08-19T03:39:37;16.63;;;10.15;;
72926;SDS011;61071;51.618;19.388;2022-08-19T03:42:05;17.33;;;11.00;;
72926;SDS011;61071;51.618;19.388;2022-08-19T03:44:31;16.27;;;10.45;;
72926;SDS011;61071;51.618;19.388;2022-08-19T03:49:29;18.33;;;10.90;;
72926;SDS011;61071;51.618;19.388;2022-08-19T03:51:58;14.18;;;10.98;;
72926;SDS011;61071;51.618;19.388;2022-08-19T03:54:28;17.30;;;10.75;;
72926;SDS011;61071;51.618;19.388;2022-08-19T03:56:54;14.40;;;10.38;;
72926;SDS011;61071;51.618;19.388;2022-08-19T03:59:24;15.88;;;9.40;;
72926;SDS011;61071;51.618;19.388;2022-08-19T04:01:58;26.85;;;11.27;;
72926;SDS011;61071;51.618;19.388;2022-08-19T04:04:27;17.13;;;10.55;;
72926;SDS011;61071;51.618;19.388;2022-08-19T04:06:53;21.13;;;10.02;;
72926;SDS011;61071;51.618;19.388;2022-08-19T04:09:19;14.43;;;9.90;;
72926;SDS011;61071;51.618;19.388;2022-08-19T04:11:47;14.07;;;9.90;;
72926;SDS011;61071;51.618;19.388;2022-08-19T04:14:19;18.35;;;9.88;;
72926;SDS011;61071;51.618;19.388;2022-08-19T04:16:49;13.60;;;9.57;;
72926;SDS011;61071;51.618;19.388;2022-08-19T04:19:16;15.85;;;9.90;;
72926;SDS011;61071;51.618;19.388;2022-08-19T04:21:44;16.42;;;9.63;;
72926;SDS011;61071;51.618;19.388;2022-08-19T04:24:14;16.15;;;9.70;;
72926;SDS011;61071;51.618;19.388;2022-08-19T04:26:40;20.65;;;11.10;;
72926;SDS011;61071;51.618;19.388;2022-08-19T04:29:08;13.45;;;9.70;;
72926;SDS011;61071;51.618;19.388;2022-08-19T04:31:41;13.70;;;9.02;;
72926;SDS011;61071;51.618;19.388;2022-08-19T04:34:10;16.63;;;9.20;;
72926;SDS011;61071;51.618;19.388;2022-08-19T04:36:39;11.63;;;9.05;;
72926;SDS011;61071;51.618;19.388;2022-08-19T04:39:09;13.80;;;8.55;;
72926;SDS011;61071;51.618;19.388;2022-08-19T04:41:41;13.30;;;9.40;;
72926;SDS011;61071;51.618;19.388;2022-08-19T04:44:26;13.13;;;9.27;;
72926;SDS011;61071;51.618;19.388;2022-08-19T04:46:55;13.00;;;8.48;;
72926;SDS011;61071;51.618;19.388;2022-08-19T04:49:22;13.38;;;8.65;;
72926;SDS011;61071;51.618;19.388;2022-08-19T04:51:49;13.93;;;9.38;;
72926;SDS011;61071;51.618;19.388;2022-08-19T04:54:19;10.73;;;8.77;;
72926;SDS011;61071;51.618;19.388;2022-08-19T04:56:50;13.50;;;9.35;;
72926;SDS011;61071;51.618;19.388;2022-08-19T04:59:19;15.90;;;9.40;;
72926;SDS011;61071;51.618;19.388;2022-08-19T05:01:46;11.65;;;8.80;;
72926;SDS011;61071;51.618;19.388;2022-08-19T05:04:15;18.73;;;9.43;;
72926;SDS011;61071;51.618;19.388;2022-08-19T05:06:46;16.20;;;9.43;;
72926;SDS011;61071;51.618;19.388;2022-08-19T05:09:13;19.55;;;9.45;;
72926;SDS011;61071;51.618;19.388;2022-08-19T05:11:41;15.73;;;10.00;;
72926;SDS011;61071;51.618;19.388;2022-08-19T05:14:07;14.02;;;8.27;;
72926;SDS011;61071;51.618;19.388;2022-08-19T05:16:35;20.60;;;9.50;;
72926;SDS011;61071;51.618;19.388;2022-08-19T05:19:01;15.43;;;8.38;;
72926;SDS011;61071;51.618;19.388;2022-08-19T05:21:46;14.85;;;8.90;;
72926;SDS011;61071;51.618;19.388;2022-08-19T05:24:31;15.07;;;8.55;;
72926;SDS011;61071;51.618;19.388;2022-08-19T05:26:59;12.50;;;8.30;;
72926;SDS011;61071;51.618;19.388;2022-08-19T05:29:28;12.00;;;7.82;;
72926;SDS011;61071;51.618;19.388;2022-08-19T05:31:56;19.67;;;8.80;;
72926;SDS011;61071;51.618;19.388;2022-08-19T05:34:24;16.73;;;7.95;;
72926;SDS011;61071;51.618;19.388;2022-08-19T05:36:53;13.50;;;8.52;;
72926;SDS011;61071;51.618;19.388;2022-08-19T05:39:22;11.87;;;8.30;;
72926;SDS011;61071;51.618;19.388;2022-08-19T05:41:55;10.20;;;7.90;;
72926;SDS011;61071;51.618;19.388;2022-08-19T05:44:24;12.77;;;7.93;;
72926;SDS011;61071;51.618;19.388;2022-08-19T05:46:55;14.60;;;7.70;;
72926;SDS011;61071;51.618;19.388;2022-08-19T05:49:21;11.75;;;7.60;;
72926;SDS011;61071;51.618;19.388;2022-08-19T05:51:48;19.23;;;8.00;;
72926;SDS011;61071;51.618;19.388;2022-08-19T05:54:14;15.63;;;8.55;;
72926;SDS011;61071;51.618;19.388;2022-08-19T05:56:41;13.88;;;7.97;;
72926;SDS011;61071;51.618;19.388;2022-08-19T05:59:08;13.45;;;7.75;;
72926;SDS011;61071;51.618;19.388;2022-08-19T06:01:36;11.88;;;7.75;;
72926;SDS011;61071;51.618;19.388;2022-08-19T06:04:04;16.15;;;8.00;;
72926;SDS011;61071;51.618;19.388;2022-08-19T06:06:30;13.00;;;7.45;;
72926;SDS011;61071;51.618;19.388;2022-08-19T06:08:56;16.75;;;7.65;;
72926;SDS011;61071;51.618;19.388;2022-08-19T06:11:25;11.23;;;7.50;;
72926;SDS011;61071;51.618;19.388;2022-08-19T06:14:09;16.67;;;7.82;;
72926;SDS011;61071;51.618;19.388;2022-08-19T06:16:39;13.43;;;7.90;;
72926;SDS011;61071;51.618;19.388;2022-08-19T06:19:09;13.73;;;7.85;;
72926;SDS011;61071;51.618;19.388;2022-08-19T06:21:42;14.20;;;8.00;;
72926;SDS011;61071;51.618;19.388;2022-08-19T06:24:12;13.65;;;7.90;;
72926;SDS011;61071;51.618;19.388;2022-08-19T06:26:42;13.80;;;8.18;;
72926;SDS011;61071;51.618;19.388;2022-08-19T06:29:11;12.30;;;7.43;;
72926;SDS011;61071;51.618;19.388;2022-08-19T06:31:41;10.45;;;7.03;;
72926;SDS011;61071;51.618;19.388;2022-08-19T06:34:11;9.70;;;6.78;;
72926;SDS011;61071;51.618;19.388;2022-08-19T06:36:42;10.77;;;7.82;;
72926;SDS011;61071;51.618;19.388;2022-08-19T06:39:13;12.65;;;7.25;;
72926;SDS011;61071;51.618;19.388;2022-08-19T06:41:44;12.87;;;7.87;;
72926;SDS011;61071;51.618;19.388;2022-08-19T06:44:13;14.55;;;7.75;;
72926;SDS011;61071;51.618;19.388;2022-08-19T06:46:40;15.50;;;7.50;;
72926;SDS011;61071;51.618;19.388;2022-08-19T06:49:06;13.70;;;8.00;;
72926;SDS011;61071;51.618;19.388;2022-08-19T06:51:35;9.60;;;7.47;;
72926;SDS011;61071;51.618;19.388;2022-08-19T06:54:01;10.82;;;7.20;;
72926;SDS011;61071;51.618;19.388;2022-08-19T06:56:28;11.40;;;7.60;;
72926;SDS011;61071;51.618;19.388;2022-08-19T06:59:03;11.88;;;7.68;;
72926;SDS011;61071;51.618;19.388;2022-08-19T07:01:34;12.65;;;8.48;;
72926;SDS011;61071;51.618;19.388;2022-08-19T07:04:12;15.20;;;7.60;;
72926;SDS011;61071;51.618;19.388;2022-08-19T07:06:41;13.57;;;7.18;;
72926;SDS011;61071;51.618;19.388;2022-08-19T07:09:09;12.27;;;7.40;;
72926;SDS011;61071;51.618;19.388;2022-08-19T07:11:37;12.20;;;7.68;;
72926;SDS011;61071;51.618;19.388;2022-08-19T07:14:03;11.23;;;7.28;;
72926;SDS011;61071;51.618;19.388;2022-08-19T07:16:31;12.93;;;7.40;;
72926;SDS011;61071;51.618;19.388;2022-08-19T07:18:57;14.73;;;7.82;;
72926;SDS011;61071;51.618;19.388;2022-08-19T07:21:25;12.43;;;6.97;;
72926;SDS011;61071;51.618;19.388;2022-08-19T07:23:53;11.57;;;7.72;;
72926;SDS011;61071;51.618;19.388;2022-08-19T07:26:25;12.30;;;7.60;;
72926;SDS011;61071;51.618;19.388;2022-08-19T07:28:54;16.05;;;7.82;;
72926;SDS011;61071;51.618;19.388;2022-08-19T07:31:23;12.00;;;7.43;;
72926;SDS011;61071;51.618;19.388;2022-08-19T07:33:52;10.57;;;7.80;;
72926;SDS011;61071;51.618;19.388;2022-08-19T07:36:24;13.93;;;7.85;;
72926;SDS011;61071;51.618;19.388;2022-08-19T07:38:57;13.38;;;7.80;;
72926;SDS011;61071;51.618;19.388;2022-08-19T07:41:26;12.13;;;7.82;;
72926;SDS011;61071;51.618;19.388;2022-08-19T07:43:54;14.15;;;7.90;;
72926;SDS011;61071;51.618;19.388;2022-08-19T07:46:20;16.45;;;8.25;;
72926;SDS011;61071;51.618;19.388;2022-08-19T07:48:47;12.07;;;7.32;;
72926;SDS011;61071;51.618;19.388;2022-08-19T07:51:17;13.05;;;7.75;;
72926;SDS011;61071;51.618;19.388;2022-08-19T07:53:47;28.23;;;7.85;;
72926;SDS011;61071;51.618;19.388;2022-08-19T07:56:16;11.70;;;7.75;;
72926;SDS011;61071;51.618;19.388;2022-08-19T07:58:44;10.15;;;7.35;;
72926;SDS011;61071;51.618;19.388;2022-08-19T08:01:14;14.38;;;8.18;;
72926;SDS011;61071;51.618;19.388;2022-08-19T08:03:46;15.35;;;8.05;;
72926;SDS011;61071;51.618;19.388;2022-08-19T08:06:35;12.73;;;8.20;;
72926;SDS011;61071;51.618;19.388;2022-08-19T08:09:25;13.07;;;8.20;;
72926;SDS011;61071;51.618;19.388;2022-08-19T08:12:00;9.77;;;7.60;;
72926;SDS011;61071;51.618;19.388;2022-08-19T08:14:42;10.50;;;7.57;;
72926;SDS011;61071;51.618;19.388;2022-08-19T08:19:43;16.52;;;8.60;;
72926;SDS011;61071;51.618;19.388;2022-08-19T08:22:11;13.95;;;7.43;;
72926;SDS011;61071;51.618;19.388;2022-08-19T08:25:05;14.82;;;7.63;;
72926;SDS011;61071;51.618;19.388;2022-08-19T08:27:37;10.70;;;8.07;;
72926;SDS011;61071;51.618;19.388;2022-08-19T08:30:09;11.02;;;7.95;;
72926;SDS011;61071;51.618;19.388;2022-08-19T08:32:47;13.13;;;8.18;;
72926;SDS011;61071;51.618;19.388;2022-08-19T08:35:18;12.35;;;8.18;;
72926;SDS011;61071;51.618;19.388;2022-08-19T08:37:49;12.95;;;7.57;;
72926;SDS011;61071;51.618;19.388;2022-08-19T08:40:19;12.85;;;8.20;;
72926;SDS011;61071;51.618;19.388;2022-08-19T08:42:49;11.15;;;7.55;;
72926;SDS011;61071;51.618;19.388;2022-08-19T08:46:10;16.15;;;7.93;;
72926;SDS011;61071;51.618;19.388;2022-08-19T08:48:56;14.35;;;8.00;;
72926;SDS011;61071;51.618;19.388;2022-08-19T08:51:50;13.23;;;7.50;;
72926;SDS011;61071;51.618;19.388;2022-08-19T08:54:26;14.43;;;7.95;;
72926;SDS011;61071;51.618;19.388;2022-08-19T08:57:11;11.05;;;7.93;;
72926;SDS011;61071;51.618;19.388;2022-08-19T08:59:45;13.50;;;7.82;;
72926;SDS011;61071;51.618;19.388;2022-08-19T09:02:16;11.88;;;8.23;;
72926;SDS011;61071;51.618;19.388;2022-08-19T09:04:43;11.93;;;8.00;;
72926;SDS011;61071;51.618;19.388;2022-08-19T09:09:52;11.48;;;7.47;;
72926;SDS011;61071;51.618;19.388;2022-08-19T09:15:25;10.00;;;7.40;;
72926;SDS011;61071;51.618;19.388;2022-08-19T09:18:05;11.13;;;7.78;;
72926;SDS011;61071;51.618;19.388;2022-08-19T09:20:34;13.43;;;7.55;;
72926;SDS011;61071;51.618;19.388;2022-08-19T09:22:59;11.32;;;7.10;;
72926;SDS011;61071;51.618;19.388;2022-08-19T09:25:25;11.40;;;6.72;;
72926;SDS011;61071;51.618;19.388;2022-08-19T09:27:51;9.85;;;7.70;;
72926;SDS011;61071;51.618;19.388;2022-08-19T09:30:20;16.52;;;6.68;;
72926;SDS011;61071;51.618;19.388;2022-08-19T09:32:49;11.02;;;6.65;;
72926;SDS011;61071;51.618;19.388;2022-08-19T09:35:20;17.03;;;6.90;;
72926;SDS011;61071;51.618;19.388;2022-08-19T09:37:49;20.35;;;7.57;;
72926;SDS011;61071;51.618;19.388;2022-08-19T09:40:17;18.17;;;6.95;;
72926;SDS011;61071;51.618;19.388;2022-08-19T09:42:44;13.02;;;7.82;;
72926;SDS011;61071;51.618;19.388;2022-08-19T09:45:12;17.60;;;6.88;;
72926;SDS011;61071;51.618;19.388;2022-08-19T09:47:40;9.50;;;6.57;;
72926;SDS011;61071;51.618;19.388;2022-08-19T09:50:07;13.98;;;6.13;;
72926;SDS011;61071;51.618;19.388;2022-08-19T09:52:36;14.55;;;7.07;;
72926;SDS011;61071;51.618;19.388;2022-08-19T09:55:03;14.65;;;7.03;;
72926;SDS011;61071;51.618;19.388;2022-08-19T09:57:34;10.88;;;6.38;;
72926;SDS011;61071;51.618;19.388;2022-08-19T10:00:00;15.07;;;7.60;;
72926;SDS011;61071;51.618;19.388;2022-08-19T10:02:28;10.45;;;6.25;;
72926;SDS011;61071;51.618;19.388;2022-08-19T10:04:54;12.05;;;7.25;;
72926;SDS011;61071;51.618;19.388;2022-08-19T10:07:39;17.60;;;7.70;;
72926;SDS011;61071;51.618;19.388;2022-08-19T10:10:05;12.13;;;7.00;;
72926;SDS011;61071;51.618;19.388;2022-08-19T10:12:33;11.65;;;7.00;;
72926;SDS011;61071;51.618;19.388;2022-08-19T10:14:59;14.73;;;7.50;;
72926;SDS011;61071;51.618;19.388;2022-08-19T10:17:27;15.57;;;6.40;;
72926;SDS011;61071;51.618;19.388;2022-08-19T10:19:53;12.35;;;7.22;;
72926;SDS011;61071;51.618;19.388;2022-08-19T10:22:19;11.05;;;6.78;;
72926;SDS011;61071;51.618;19.388;2022-08-19T10:24:45;15.82;;;6.28;;
72926;SDS011;61071;51.618;19.388;2022-08-19T10:27:12;13.55;;;6.53;;
72926;SDS011;61071;51.618;19.388;2022-08-19T10:29:39;10.63;;;6.35;;
72926;SDS011;61071;51.618;19.388;2022-08-19T10:32:06;10.63;;;6.38;;
72926;SDS011;61071;51.618;19.388;2022-08-19T10:34:34;18.30;;;7.22;;
72926;SDS011;61071;51.618;19.388;2022-08-19T10:37:05;12.23;;;6.72;;
72926;SDS011;61071;51.618;19.388;2022-08-19T10:39:35;11.63;;;6.20;;
72926;SDS011;61071;51.618;19.388;2022-08-19T10:42:07;12.82;;;6.68;;
72926;SDS011;61071;51.618;19.388;2022-08-19T10:44:35;12.60;;;5.03;;
72926;SDS011;61071;51.618;19.388;2022-08-19T10:47:02;12.60;;;6.50;;
72926;SDS011;61071;51.618;19.388;2022-08-19T10:49:29;19.70;;;5.95;;
72926;SDS011;61071;51.618;19.388;2022-08-19T10:51:55;14.70;;;5.85;;
72926;SDS011;61071;51.618;19.388;2022-08-19T10:54:40;12.10;;;5.40;;
72926;SDS011;61071;51.618;19.388;2022-08-19T10:57:25;18.50;;;5.43;;
72926;SDS011;61071;51.618;19.388;2022-08-19T10:59:55;15.13;;;5.43;;
72926;SDS011;61071;51.618;19.388;2022-08-19T11:02:21;12.60;;;5.68;;
72926;SDS011;61071;51.618;19.388;2022-08-19T11:04:47;13.20;;;5.55;;
72926;SDS011;61071;51.618;19.388;2022-08-19T11:07:15;14.27;;;5.68;;
72926;SDS011;61071;51.618;19.388;2022-08-19T11:09:42;11.15;;;4.93;;
72926;SDS011;61071;51.618;19.388;2022-08-19T11:12:08;12.82;;;5.57;;
72926;SDS011;61071;51.618;19.388;2022-08-19T11:14:35;12.85;;;5.63;;
72926;SDS011;61071;51.618;19.388;2022-08-19T11:17:02;18.08;;;5.50;;
72926;SDS011;61071;51.618;19.388;2022-08-19T11:19:30;13.95;;;5.88;;
72926;SDS011;61071;51.618;19.388;2022-08-19T11:21:56;17.05;;;5.68;;
72926;SDS011;61071;51.618;19.388;2022-08-19T11:24:24;9.95;;;4.70;;
72926;SDS011;61071;51.618;19.388;2022-08-19T11:26:51;16.05;;;5.60;;
72926;SDS011;61071;51.618;19.388;2022-08-19T11:29:26;10.35;;;4.75;;
72926;SDS011;61071;51.618;19.388;2022-08-19T11:31:53;15.35;;;5.20;;
72926;SDS011;61071;51.618;19.388;2022-08-19T11:34:22;17.42;;;5.85;;
72926;SDS011;61071;51.618;19.388;2022-08-19T11:36:52;11.60;;;5.03;;
72926;SDS011;61071;51.618;19.388;2022-08-19T11:41:50;16.75;;;5.57;;
72926;SDS011;61071;51.618;19.388;2022-08-19T11:44:16;12.63;;;6.25;;
72926;SDS011;61071;51.618;19.388;2022-08-19T11:46:43;9.32;;;5.63;;
72926;SDS011;61071;51.618;19.388;2022-08-19T11:49:12;8.90;;;5.03;;
72926;SDS011;61071;51.618;19.388;2022-08-19T11:51:40;9.65;;;4.68;;
72926;SDS011;61071;51.618;19.388;2022-08-19T11:54:08;13.52;;;5.20;;
72926;SDS011;61071;51.618;19.388;2022-08-19T11:56:36;12.82;;;4.60;;
72926;SDS011;61071;51.618;19.388;2022-08-19T11:59:02;15.07;;;5.68;;
72926;SDS011;61071;51.618;19.388;2022-08-19T12:01:28;18.45;;;5.50;;
72926;SDS011;61071;51.618;19.388;2022-08-19T12:03:54;18.77;;;5.00;;
72926;SDS011;61071;51.618;19.388;2022-08-19T12:06:25;17.52;;;5.30;;
72926;SDS011;61071;51.618;19.388;2022-08-19T12:08:58;15.30;;;5.18;;
72926;SDS011;61071;51.618;19.388;2022-08-19T12:11:27;18.93;;;5.47;;
72926;SDS011;61071;51.618;19.388;2022-08-19T12:13:53;13.55;;;5.22;;
72926;SDS011;61071;51.618;19.388;2022-08-19T12:16:20;21.20;;;5.75;;
72926;SDS011;61071;51.618;19.388;2022-08-19T12:18:50;20.05;;;5.10;;
72926;SDS011;61071;51.618;19.388;2022-08-19T12:21:17;14.10;;;4.95;;
72926;SDS011;61071;51.618;19.388;2022-08-19T12:23:47;13.93;;;5.18;;
72926;SDS011;61071;51.618;19.388;2022-08-19T12:26:15;18.38;;;4.95;;
72926;SDS011;61071;51.618;19.388;2022-08-19T12:28:42;13.45;;;5.00;;
72926;SDS011;61071;51.618;19.388;2022-08-19T12:31:08;18.52;;;5.63;;
72926;SDS011;61071;51.618;19.388;2022-08-19T12:33:39;15.25;;;4.57;;
72926;SDS011;61071;51.618;19.388;2022-08-19T12:36:06;14.18;;;4.47;;
72926;SDS011;61071;51.618;19.388;2022-08-19T12:38:36;14.88;;;5.45;;
72926;SDS011;61071;51.618;19.388;2022-08-19T12:41:04;13.00;;;4.78;;
72926;SDS011;61071;51.618;19.388;2022-08-19T12:43:31;11.60;;;4.88;;
72926;SDS011;61071;51.618;19.388;2022-08-19T12:46:01;15.40;;;5.38;;
72926;SDS011;61071;51.618;19.388;2022-08-19T12:48:29;11.57;;;5.07;;
72926;SDS011;61071;51.618;19.388;2022-08-19T12:50:56;15.48;;;5.15;;
72926;SDS011;61071;51.618;19.388;2022-08-19T12:53:21;12.20;;;4.35;;
72926;SDS011;61071;51.618;19.388;2022-08-19T12:55:48;13.82;;;5.20;;
72926;SDS011;61071;51.618;19.388;2022-08-19T12:58:21;12.48;;;5.10;;
72926;SDS011;61071;51.618;19.388;2022-08-19T13:00:47;14.63;;;5.22;;
72926;SDS011;61071;51.618;19.388;2022-08-19T13:03:14;17.77;;;6.25;;
72926;SDS011;61071;51.618;19.388;2022-08-19T13:05:40;16.38;;;5.00;;
72926;SDS011;61071;51.618;19.388;2022-08-19T13:08:06;14.15;;;5.50;;
72926;SDS011;61071;51.618;19.388;2022-08-19T13:10:33;15.95;;;5.05;;
72926;SDS011;61071;51.618;19.388;2022-08-19T13:13:02;20.58;;;5.25;;
72926;SDS011;61071;51.618;19.388;2022-08-19T13:15:35;18.35;;;5.20;;
72926;SDS011;61071;51.618;19.388;2022-08-19T13:18:05;11.48;;;5.22;;
72926;SDS011;61071;51.618;19.388;2022-08-19T13:20:34;16.80;;;5.20;;
72926;SDS011;61071;51.618;19.388;2022-08-19T13:23:02;13.55;;;5.35;;
72926;SDS011;61071;51.618;19.388;2022-08-19T13:25:28;18.30;;;5.40;;
72926;SDS011;61071;51.618;19.388;2022-08-19T13:27:54;15.48;;;5.25;;
72926;SDS011;61071;51.618;19.388;2022-08-19T13:30:20;14.65;;;4.78;;
72926;SDS011;61071;51.618;19.388;2022-08-19T13:33:05;11.88;;;4.80;;
72926;SDS011;61071;51.618;19.388;2022-08-19T13:35:35;16.77;;;4.47;;
72926;SDS011;61071;51.618;19.388;2022-08-19T13:38:08;12.88;;;5.22;;
72926;SDS011;61071;51.618;19.388;2022-08-19T13:40:35;16.67;;;5.15;;
72926;SDS011;61071;51.618;19.388;2022-08-19T13:43:03;14.60;;;4.90;;
72926;SDS011;61071;51.618;19.388;2022-08-19T13:45:30;16.13;;;4.70;;
72926;SDS011;61071;51.618;19.388;2022-08-19T13:47:59;16.25;;;4.78;;
72926;SDS011;61071;51.618;19.388;2022-08-19T13:50:29;16.83;;;5.03;;
72926;SDS011;61071;51.618;19.388;2022-08-19T13:52:56;19.63;;;5.18;;
72926;SDS011;61071;51.618;19.388;2022-08-19T13:55:22;18.85;;;4.97;;
72926;SDS011;61071;51.618;19.388;2022-08-19T13:57:50;15.75;;;4.80;;
72926;SDS011;61071;51.618;19.388;2022-08-19T14:00:18;13.68;;;4.90;;
72926;SDS011;61071;51.618;19.388;2022-08-19T14:02:46;15.10;;;5.00;;
72926;SDS011;61071;51.618;19.388;2022-08-19T14:05:16;13.82;;;4.63;;
72926;SDS011;61071;51.618;19.388;2022-08-19T14:07:43;14.68;;;5.47;;
72926;SDS011;61071;51.618;19.388;2022-08-19T14:10:11;15.02;;;4.93;;
72926;SDS011;61071;51.618;19.388;2022-08-19T14:12:38;14.73;;;5.15;;
72926;SDS011;61071;51.618;19.388;2022-08-19T14:15:05;22.17;;;4.80;;
72926;SDS011;61071;51.618;19.388;2022-08-19T14:17:33;13.35;;;4.70;;
72926;SDS011;61071;51.618;19.388;2022-08-19T14:20:03;15.10;;;4.32;;
72926;SDS011;61071;51.618;19.388;2022-08-19T14:22:37;19.05;;;4.50;;
72926;SDS011;61071;51.618;19.388;2022-08-19T14:25:06;10.85;;;4.65;;
72926;SDS011;61071;51.618;19.388;2022-08-19T14:27:40;15.25;;;4.53;;
72926;SDS011;61071;51.618;19.388;2022-08-19T14:30:07;10.95;;;4.38;;
72926;SDS011;61071;51.618;19.388;2022-08-19T14:32:36;17.23;;;4.13;;
72926;SDS011;61071;51.618;19.388;2022-08-19T14:35:02;12.52;;;4.13;;
72926;SDS011;61071;51.618;19.388;2022-08-19T14:37:29;13.60;;;4.40;;
72926;SDS011;61071;51.618;19.388;2022-08-19T14:39:55;13.60;;;4.88;;
72926;SDS011;61071;51.618;19.388;2022-08-19T14:42:21;18.98;;;5.30;;
72926;SDS011;61071;51.618;19.388;2022-08-19T14:44:47;12.82;;;4.63;;
72926;SDS011;61071;51.618;19.388;2022-08-19T14:47:12;15.18;;;4.80;;